sensor_id;sensor_type;location;lat;lon;timestamp;pressure;altitude;pressure_sealevel;temperature;humidity
82311;BME280;72015;51.330;12.316;2024-02-21T00:03:28;101002.48;;;5.66;52.19
82311;BME280;72015;51.330;12.316;2024-02-21T00:07:50;101000.34;;;5.69;51.52
82311;BME280;72015;51.330;12.316;2024-02-21T00:12:12;100996.22;;;5.71;51.89
82311;BME280;72015;51.330;12.316;2024-02-21T00:16:34;100990.98;;;5.78;50.76
82311;BME280;72015;51.330;12.316;2024-02-21T00:20:56;100984.84;;;5.75;51.72
82311;BME280;72015;51.330;12.316;2024-02-21T00:25:19;100979.41;;;5.67;52.79
82311;BME280;72015;51.330;12.316;2024-02-21T00:29:40;100973.61;;;5.66;52.19
82311;BME280;72015;51.330;12.316;2024-02-21T00:34:02;100969.74;;;5.69;51.46
82311;BME280;72015;51.330;12.316;2024-02-21T00:38:24;100966.97;;;5.76;51.21
82311;BME280;72015;51.330;12.316;2024-02-21T00:42:46;100961.84;;;5.76;51.42
82311;BME280;72015;51.330;12.316;2024-02-21T00:47:09;100957.95;;;5.76;51.04
82311;BME280;72015;51.330;12.316;2024-02-21T00:51:30;100952.09;;;5.80;51.36
82311;BME280;72015;51.330;12.316;2024-02-21T00:55:52;100946.56;;;5.80;51.42
82311;BME280;72015;51.330;12.316;2024-02-21T01:00:15;100941.52;;;5.81;51.06
82311;BME280;72015;51.330;12.316;2024-02-21T01:04:36;100935.53;;;5.75;51.94
82311;BME280;72015;51.330;12.316;2024-02-21T01:08:58;100930.39;;;5.74;51.35
82311;BME280;72015;51.330;12.316;2024-02-21T01:13:20;100925.67;;;5.73;50.98
82311;BME280;72015;51.330;12.316;2024-02-21T01:17:42;100920.82;;;5.79;50.48
82311;BME280;72015;51.330;12.316;2024-02-21T01:22:04;100915.86;;;5.80;50.93
82311;BME280;72015;51.330;12.316;2024-02-21T01:26:26;100911.05;;;5.79;51.04
82311;BME280;72015;51.330;12.316;2024-02-21T01:30:48;100907.98;;;5.75;51.55
82311;BME280;72015;51.330;12.316;2024-02-21T01:35:10;100903.50;;;5.73;51.42
82311;BME280;72015;51.330;12.316;2024-02-21T01:39:33;100898.83;;;5.67;52.00
82311;BME280;72015;51.330;12.316;2024-02-21T01:43:54;100892.77;;;5.63;52.05
82311;BME280;72015;51.330;12.316;2024-02-21T01:48:17;100888.72;;;5.53;52.50
82311;BME280;72015;51.330;12.316;2024-02-21T01:52:38;100882.42;;;5.49;52.28
82311;BME280;72015;51.330;12.316;2024-02-21T01:57:00;100878.19;;;5.49;51.45
82311;BME280;72015;51.330;12.316;2024-02-21T02:01:22;100873.32;;;5.48;52.04
82311;BME280;72015;51.330;12.316;2024-02-21T02:05:45;100870.70;;;5.47;52.03
82311;BME280;72015;51.330;12.316;2024-02-21T02:10:07;100867.05;;;5.43;52.06
82311;BME280;72015;51.330;12.316;2024-02-21T02:14:28;100863.89;;;5.41;52.14
82311;BME280;72015;51.330;12.316;2024-02-21T02:18:50;100858.26;;;5.39;52.02
82311;BME280;72015;51.330;12.316;2024-02-21T02:27:41;100846.62;;;5.54;51.33
82311;BME280;72015;51.330;12.316;2024-02-21T02:31:57;100841.41;;;5.52;52.04
82311;BME280;72015;51.330;12.316;2024-02-21T02:36:19;100835.39;;;5.55;51.11
82311;BME280;72015;51.330;12.316;2024-02-21T02:40:41;100830.90;;;5.62;50.79
82311;BME280;72015;51.330;12.316;2024-02-21T02:45:03;100826.54;;;5.67;50.43
82311;BME280;72015;51.330;12.316;2024-02-21T02:49:24;100821.59;;;5.71;50.73
82311;BME280;72015;51.330;12.316;2024-02-21T02:53:46;100818.28;;;5.71;51.74
82311;BME280;72015;51.330;12.316;2024-02-21T02:58:09;100816.49;;;5.76;50.72
82311;BME280;72015;51.330;12.316;2024-02-21T03:02:31;100814.26;;;5.82;50.60
82311;BME280;72015;51.330;12.316;2024-02-21T03:06:53;100812.05;;;5.86;50.87
82311;BME280;72015;51.330;12.316;2024-02-21T03:11:15;100806.20;;;5.98;49.54
82311;BME280;72015;51.330;12.316;2024-02-21T03:15:37;100802.66;;;6.05;50.19
82311;BME280;72015;51.330;12.316;2024-02-21T03:19:59;100800.27;;;6.07;49.91
82311;BME280;72015;51.330;12.316;2024-02-21T03:24:21;100798.35;;;6.06;50.32
82311;BME280;72015;51.330;12.316;2024-02-21T03:28:43;100798.33;;;5.93;51.68
82311;BME280;72015;51.330;12.316;2024-02-21T03:33:05;100797.80;;;5.80;52.29
82311;BME280;72015;51.330;12.316;2024-02-21T03:37:27;100799.06;;;5.64;52.79
82311;BME280;72015;51.330;12.316;2024-02-21T03:41:49;100797.82;;;5.51;53.00
82311;BME280;72015;51.330;12.316;2024-02-21T03:46:11;100796.19;;;5.45;52.80
82311;BME280;72015;51.330;12.316;2024-02-21T03:50:33;100796.99;;;5.39;53.20
82311;BME280;72015;51.330;12.316;2024-02-21T03:54:55;100798.83;;;5.27;53.99
82311;BME280;72015;51.330;12.316;2024-02-21T03:59:17;100799.28;;;5.18;53.83
82311;BME280;72015;51.330;12.316;2024-02-21T04:03:39;100800.09;;;5.17;53.91
82311;BME280;72015;51.330;12.316;2024-02-21T04:08:04;100798.77;;;5.15;54.41
82311;BME280;72015;51.330;12.316;2024-02-21T04:12:23;100797.72;;;5.06;55.43
82311;BME280;72015;51.330;12.316;2024-02-21T04:16:44;100796.41;;;5.07;54.32
82311;BME280;72015;51.330;12.316;2024-02-21T04:21:07;100794.81;;;5.04;55.02
82311;BME280;72015;51.330;12.316;2024-02-21T04:25:28;100793.18;;;5.06;54.63
82311;BME280;72015;51.330;12.316;2024-02-21T04:29:50;100789.72;;;4.99;56.56
82311;BME280;72015;51.330;12.316;2024-02-21T04:34:13;100785.10;;;5.00;55.32
82311;BME280;72015;51.330;12.316;2024-02-21T04:38:35;100779.28;;;5.04;54.43
82311;BME280;72015;51.330;12.316;2024-02-21T04:42:57;100773.14;;;5.13;54.91
82311;BME280;72015;51.330;12.316;2024-02-21T04:47:19;100772.02;;;5.04;56.53
82311;BME280;72015;51.330;12.316;2024-02-21T04:51:41;100768.17;;;5.11;54.49
82311;BME280;72015;51.330;12.316;2024-02-21T04:56:03;100762.52;;;5.23;54.13
82311;BME280;72015;51.330;12.316;2024-02-21T05:00:24;100756.37;;;5.33;54.19
82311;BME280;72015;51.330;12.316;2024-02-21T05:04:47;100751.28;;;5.42;54.20
82311;BME280;72015;51.330;12.316;2024-02-21T05:09:09;100743.01;;;5.56;52.99
82311;BME280;72015;51.330;12.316;2024-02-21T05:13:30;100734.14;;;5.67;53.24
82311;BME280;72015;51.330;12.316;2024-02-21T05:17:52;100725.55;;;5.73;52.72
82311;BME280;72015;51.330;12.316;2024-02-21T05:22:14;100716.96;;;5.75;53.61
82311;BME280;72015;51.330;12.316;2024-02-21T05:26:36;100709.58;;;5.71;54.48
82311;BME280;72015;51.330;12.316;2024-02-21T05:30:58;100703.78;;;5.68;53.91
82311;BME280;72015;51.330;12.316;2024-02-21T05:35:24;100698.56;;;5.65;54.67
82311;BME280;72015;51.330;12.316;2024-02-21T05:39:43;100695.37;;;5.58;54.58
82311;BME280;72015;51.330;12.316;2024-02-21T05:44:04;100691.06;;;5.54;54.11
82311;BME280;72015;51.330;12.316;2024-02-21T05:48:26;100689.18;;;5.43;56.07
82311;BME280;72015;51.330;12.316;2024-02-21T05:52:51;100686.53;;;5.40;55.05
82311;BME280;72015;51.330;12.316;2024-02-21T05:57:10;100683.40;;;5.45;54.22
82311;BME280;72015;51.330;12.316;2024-02-21T06:01:32;100681.30;;;5.53;53.52
82311;BME280;72015;51.330;12.316;2024-02-21T06:05:54;100676.76;;;5.58;54.14
82311;BME280;72015;51.330;12.316;2024-02-21T06:10:17;100670.63;;;5.52;55.64
82311;BME280;72015;51.330;12.316;2024-02-21T06:14:38;100665.94;;;5.36;56.88
82311;BME280;72015;51.330;12.316;2024-02-21T06:19:01;100664.47;;;5.18;58.06
82311;BME280;72015;51.330;12.316;2024-02-21T06:23:23;100659.33;;;4.99;57.78
82311;BME280;72015;51.330;12.316;2024-02-21T06:27:45;100655.20;;;4.82;59.06
82311;BME280;72015;51.330;12.316;2024-02-21T06:32:07;100656.81;;;4.73;58.37
82311;BME280;72015;51.330;12.316;2024-02-21T06:36:29;100660.42;;;4.68;57.91
82311;BME280;72015;51.330;12.316;2024-02-21T06:40:51;100664.14;;;4.69;57.04
82311;BME280;72015;51.330;12.316;2024-02-21T06:45:13;100666.42;;;4.79;55.70
82311;BME280;72015;51.330;12.316;2024-02-21T06:49:35;100670.29;;;4.92;55.40
82311;BME280;72015;51.330;12.316;2024-02-21T06:53:57;100675.74;;;5.04;55.27
82311;BME280;72015;51.330;12.316;2024-02-21T06:58:19;100683.67;;;5.25;53.54
82311;BME280;72015;51.330;12.316;2024-02-21T07:02:41;100690.06;;;5.48;52.75
82311;BME280;72015;51.330;12.316;2024-02-21T07:07:03;100696.41;;;5.61;53.52
82311;BME280;72015;51.330;12.316;2024-02-21T07:11:25;100701.48;;;5.72;53.33
82311;BME280;72015;51.330;12.316;2024-02-21T07:15:47;100707.70;;;5.59;56.35
82311;BME280;72015;51.330;12.316;2024-02-21T07:20:09;100712.27;;;5.46;55.18
82311;BME280;72015;51.330;12.316;2024-02-21T07:24:31;100715.63;;;5.38;56.33
82311;BME280;72015;51.330;12.316;2024-02-21T07:28:53;100721.56;;;5.13;57.54
82311;BME280;72015;51.330;12.316;2024-02-21T07:33:15;100724.42;;;4.95;58.09
82311;BME280;72015;51.330;12.316;2024-02-21T07:37:37;100727.95;;;4.77;58.14
82311;BME280;72015;51.330;12.316;2024-02-21T07:41:59;100730.56;;;4.60;58.23
82311;BME280;72015;51.330;12.316;2024-02-21T07:46:21;100730.97;;;4.47;58.66
82311;BME280;72015;51.330;12.316;2024-02-21T07:50:43;100729.69;;;4.34;59.02
82311;BME280;72015;51.330;12.316;2024-02-21T07:55:05;100727.48;;;4.38;57.12
82311;BME280;72015;51.330;12.316;2024-02-21T07:59:27;100722.64;;;4.41;57.40
82311;BME280;72015;51.330;12.316;2024-02-21T08:03:49;100715.70;;;4.49;57.01
82311;BME280;72015;51.330;12.316;2024-02-21T08:08:11;100709.83;;;4.58;56.10
82311;BME280;72015;51.330;12.316;2024-02-21T08:12:33;100701.29;;;4.67;55.90
82311;BME280;72015;51.330;12.316;2024-02-21T08:16:55;100694.65;;;4.75;55.97
82311;BME280;72015;51.330;12.316;2024-02-21T08:21:17;100691.08;;;4.71;57.51
82311;BME280;72015;51.330;12.316;2024-02-21T08:25:39;100688.73;;;4.67;57.46
82311;BME280;72015;51.330;12.316;2024-02-21T08:30:01;100686.67;;;4.67;57.04
82311;BME280;72015;51.330;12.316;2024-02-21T08:34:23;100683.42;;;4.61;57.78
82311;BME280;72015;51.330;12.316;2024-02-21T08:38:45;100681.08;;;4.56;57.36
82311;BME280;72015;51.330;12.316;2024-02-21T08:43:07;100679.52;;;4.44;58.70
82311;BME280;72015;51.330;12.316;2024-02-21T08:47:29;100678.85;;;4.34;59.66
82311;BME280;72015;51.330;12.316;2024-02-21T08:51:51;100680.20;;;4.29;59.04
82311;BME280;72015;51.330;12.316;2024-02-21T08:56:13;100675.37;;;4.23;59.31
82311;BME280;72015;51.330;12.316;2024-02-21T09:00:35;100670.32;;;4.21;59.13
82311;BME280;72015;51.330;12.316;2024-02-21T09:04:57;100668.77;;;4.24;58.51
82311;BME280;72015;51.330;12.316;2024-02-21T09:09:19;100666.49;;;4.39;56.98
82311;BME280;72015;51.330;12.316;2024-02-21T09:13:41;100666.35;;;4.51;56.84
82311;BME280;72015;51.330;12.316;2024-02-21T09:18:03;100667.50;;;4.65;56.42
82311;BME280;72015;51.330;12.316;2024-02-21T09:22:25;100669.16;;;4.79;56.16
82311;BME280;72015;51.330;12.316;2024-02-21T09:26:47;100669.25;;;4.83;56.52
82311;BME280;72015;51.330;12.316;2024-02-21T09:31:09;100670.65;;;4.83;56.94
82311;BME280;72015;51.330;12.316;2024-02-21T09:35:31;100670.29;;;4.77;57.86
82311;BME280;72015;51.330;12.316;2024-02-21T09:44:19;100668.48;;;4.95;54.89
82311;BME280;72015;51.330;12.316;2024-02-21T09:53:03;100664.01;;;5.06;56.09
82311;BME280;72015;51.330;12.316;2024-02-21T09:57:25;100661.16;;;5.14;54.99
82311;BME280;72015;51.330;12.316;2024-02-21T10:15:00;100651.92;;;5.74;53.45
82311;BME280;72015;51.330;12.316;2024-02-21T10:23:51;100645.06;;;5.79;53.45
82311;BME280;72015;51.330;12.316;2024-02-21T10:32:35;100639.22;;;5.59;55.01
82311;BME280;72015;51.330;12.316;2024-02-21T10:41:20;100630.80;;;5.40;54.81
82311;BME280;72015;51.330;12.316;2024-02-21T10:45:41;100628.08;;;5.38;54.46
82311;BME280;72015;51.330;12.316;2024-02-21T10:50:04;100623.61;;;5.37;54.28
82311;BME280;72015;51.330;12.316;2024-02-21T10:58:47;100616.83;;;5.40;54.56
82311;BME280;72015;51.330;12.316;2024-02-21T11:03:09;100611.38;;;5.44;53.62
82311;BME280;72015;51.330;12.316;2024-02-21T11:07:31;100605.27;;;5.65;51.58
82311;BME280;72015;51.330;12.316;2024-02-21T11:11:53;100598.24;;;5.84;51.53
82311;BME280;72015;51.330;12.316;2024-02-21T11:20:37;100582.33;;;6.22;50.74
82311;BME280;72015;51.330;12.316;2024-02-21T11:29:24;100563.31;;;6.64;50.61
82311;BME280;72015;51.330;12.316;2024-02-21T11:33:43;100552.88;;;6.64;52.28
82311;BME280;72015;51.330;12.316;2024-02-21T11:38:09;100542.19;;;6.64;51.86
82311;BME280;72015;51.330;12.316;2024-02-21T11:42:28;100534.35;;;6.58;52.73
82311;BME280;72015;51.330;12.316;2024-02-21T11:46:49;100524.37;;;6.49;53.53
82311;BME280;72015;51.330;12.316;2024-02-21T11:51:11;100515.01;;;6.48;52.63
82311;BME280;72015;51.330;12.316;2024-02-21T11:55:33;100503.50;;;6.49;53.13
82311;BME280;72015;51.330;12.316;2024-02-21T11:59:55;100493.24;;;6.45;54.26
82311;BME280;72015;51.330;12.316;2024-02-21T12:04:18;100483.59;;;6.37;53.80
82311;BME280;72015;51.330;12.316;2024-02-21T12:08:43;100479.83;;;6.26;53.88
82311;BME280;72015;51.330;12.316;2024-02-21T12:13:05;100473.71;;;6.16;54.71
82311;BME280;72015;51.330;12.316;2024-02-21T12:17:23;100464.84;;;6.28;52.03
82311;BME280;72015;51.330;12.316;2024-02-21T12:21:47;100457.36;;;6.33;53.48
82311;BME280;72015;51.330;12.316;2024-02-21T12:26:07;100449.19;;;6.28;53.97
82311;BME280;72015;51.330;12.316;2024-02-21T12:30:29;100440.97;;;6.31;52.88
82311;BME280;72015;51.330;12.316;2024-02-21T12:34:51;100434.25;;;6.34;53.71
82311;BME280;72015;51.330;12.316;2024-02-21T12:39:13;100427.09;;;6.42;52.62
82311;BME280;72015;51.330;12.316;2024-02-21T12:43:35;100421.59;;;6.49;52.90
82311;BME280;72015;51.330;12.316;2024-02-21T12:47:57;100414.81;;;6.59;52.21
82311;BME280;72015;51.330;12.316;2024-02-21T12:52:19;100405.40;;;6.77;51.31
82311;BME280;72015;51.330;12.316;2024-02-21T12:56:41;100395.40;;;6.95;51.54
82311;BME280;72015;51.330;12.316;2024-02-21T13:01:03;100385.13;;;7.23;49.70
82311;BME280;72015;51.330;12.316;2024-02-21T13:09:47;100362.33;;;8.10;46.12
82311;BME280;72015;51.330;12.316;2024-02-21T13:14:09;100350.61;;;8.64;45.00
82311;BME280;72015;51.330;12.316;2024-02-21T13:18:31;100339.26;;;8.92;44.88
82311;BME280;72015;51.330;12.316;2024-02-21T13:22:53;100327.72;;;9.35;43.41
82311;BME280;72015;51.330;12.316;2024-02-21T13:27:15;100316.46;;;9.72;43.64
82311;BME280;72015;51.330;12.316;2024-02-21T13:31:37;100303.88;;;9.92;44.10
82311;BME280;72015;51.330;12.316;2024-02-21T13:35:59;100293.05;;;10.08;43.74
82311;BME280;72015;51.330;12.316;2024-02-21T13:40:21;100283.25;;;10.30;42.36
82311;BME280;72015;51.330;12.316;2024-02-21T13:44:43;100275.14;;;10.38;43.19
82311;BME280;72015;51.330;12.316;2024-02-21T13:49:05;100269.19;;;10.29;43.55
82311;BME280;72015;51.330;12.316;2024-02-21T13:53:28;100263.62;;;10.20;43.38
82311;BME280;72015;51.330;12.316;2024-02-21T13:57:49;100258.72;;;10.02;43.66
82311;BME280;72015;51.330;12.316;2024-02-21T14:02:11;100254.33;;;9.73;45.52
82311;BME280;72015;51.330;12.316;2024-02-21T14:06:33;100250.55;;;9.50;45.39
82311;BME280;72015;51.330;12.316;2024-02-21T14:10:55;100247.13;;;9.47;44.00
82311;BME280;72015;51.330;12.316;2024-02-21T14:15:17;100243.06;;;9.42;44.11
82311;BME280;72015;51.330;12.316;2024-02-21T14:19:39;100237.46;;;9.31;44.48
82311;BME280;72015;51.330;12.316;2024-02-21T14:28:23;100228.04;;;9.48;42.63
82311;BME280;72015;51.330;12.316;2024-02-21T14:32:45;100224.31;;;9.59;42.38
82311;BME280;72015;51.330;12.316;2024-02-21T14:37:07;100221.41;;;9.62;42.52
82311;BME280;72015;51.330;12.316;2024-02-21T14:41:30;100218.12;;;9.73;41.98
82311;BME280;72015;51.330;12.316;2024-02-21T14:45:51;100213.82;;;9.79;41.93
82311;BME280;72015;51.330;12.316;2024-02-21T14:50:13;100206.61;;;9.96;41.16
82311;BME280;72015;51.330;12.316;2024-02-21T14:54:35;100197.97;;;10.13;40.48
82311;BME280;72015;51.330;12.316;2024-02-21T14:58:57;100189.23;;;10.20;40.92
82311;BME280;72015;51.330;12.316;2024-02-21T15:03:19;100179.37;;;10.18;41.52
82311;BME280;72015;51.330;12.316;2024-02-21T15:07:41;100168.16;;;10.20;40.85
82311;BME280;72015;51.330;12.316;2024-02-21T15:12:04;100155.69;;;10.15;41.37
82311;BME280;72015;51.330;12.316;2024-02-21T15:16:25;100144.72;;;10.08;41.16
82311;BME280;72015;51.330;12.316;2024-02-21T15:20:47;100134.69;;;9.99;40.98
82311;BME280;72015;51.330;12.316;2024-02-21T15:25:09;100124.49;;;9.89;40.92
82311;BME280;72015;51.330;12.316;2024-02-21T15:29:31;100114.79;;;9.81;41.08
82311;BME280;72015;51.330;12.316;2024-02-21T15:33:53;100106.20;;;9.67;41.86
82311;BME280;72015;51.330;12.316;2024-02-21T15:38:16;100096.63;;;9.63;41.63
82311;BME280;72015;51.330;12.316;2024-02-21T15:42:37;100088.61;;;9.61;41.62
82311;BME280;72015;51.330;12.316;2024-02-21T15:46:59;100081.67;;;9.55;42.10
82311;BME280;72015;51.330;12.316;2024-02-21T15:51:21;100076.03;;;9.44;41.97
82311;BME280;72015;51.330;12.316;2024-02-21T15:55:43;100070.51;;;9.31;42.66
82311;BME280;72015;51.330;12.316;2024-02-21T16:00:06;100064.23;;;9.07;43.81
82311;BME280;72015;51.330;12.316;2024-02-21T16:04:28;100057.39;;;8.86;43.72
82311;BME280;72015;51.330;12.316;2024-02-21T16:08:49;100048.85;;;8.69;43.09
82311;BME280;72015;51.330;12.316;2024-02-21T16:13:11;100040.99;;;8.63;42.13
82311;BME280;72015;51.330;12.316;2024-02-21T16:17:33;100033.07;;;8.52;42.13
82311;BME280;72015;51.330;12.316;2024-02-21T16:21:55;100026.51;;;8.42;42.76
82311;BME280;72015;51.330;12.316;2024-02-21T16:26:17;100019.80;;;8.33;42.78
82311;BME280;72015;51.330;12.316;2024-02-21T16:30:39;100016.30;;;8.17;44.17
82311;BME280;72015;51.330;12.316;2024-02-21T16:35:01;100011.61;;;8.01;44.87
82311;BME280;72015;51.330;12.316;2024-02-21T16:39:24;100008.15;;;7.87;44.89
82311;BME280;72015;51.330;12.316;2024-02-21T16:43:46;100004.21;;;7.67;45.67
82311;BME280;72015;51.330;12.316;2024-02-21T16:48:07;99999.82;;;7.51;45.94
82311;BME280;72015;51.330;12.316;2024-02-21T16:52:29;99994.92;;;7.37;46.43
82311;BME280;72015;51.330;12.316;2024-02-21T16:56:52;99994.83;;;7.25;46.08
82311;BME280;72015;51.330;12.316;2024-02-21T17:01:13;99994.02;;;7.29;44.65
82311;BME280;72015;51.330;12.316;2024-02-21T17:05:36;99991.46;;;7.46;43.54
82311;BME280;72015;51.330;12.316;2024-02-21T17:09:58;99986.96;;;7.56;43.71
82311;BME280;72015;51.330;12.316;2024-02-21T17:14:20;99981.73;;;7.66;43.98
82311;BME280;72015;51.330;12.316;2024-02-21T17:18:42;99974.11;;;7.65;44.75
82311;BME280;72015;51.330;12.316;2024-02-21T17:23:04;99966.03;;;7.57;45.50
82311;BME280;72015;51.330;12.316;2024-02-21T17:27:26;99957.01;;;7.47;45.30
82311;BME280;72015;51.330;12.316;2024-02-21T17:31:48;99947.49;;;7.29;46.34
82311;BME280;72015;51.330;12.316;2024-02-21T17:36:10;99937.77;;;7.15;46.49
82311;BME280;72015;51.330;12.316;2024-02-21T17:40:32;99927.53;;;7.02;47.08
82311;BME280;72015;51.330;12.316;2024-02-21T17:44:54;99918.22;;;6.89;46.86
82311;BME280;72015;51.330;12.316;2024-02-21T17:49:16;99910.24;;;6.80;46.76
82311;BME280;72015;51.330;12.316;2024-02-21T17:53:38;99901.84;;;6.76;47.10
82311;BME280;72015;51.330;12.316;2024-02-21T17:58:00;99893.87;;;6.68;46.83
82311;BME280;72015;51.330;12.316;2024-02-21T18:02:22;99887.22;;;6.63;46.57
82311;BME280;72015;51.330;12.316;2024-02-21T18:06:44;99882.74;;;6.64;46.47
82311;BME280;72015;51.330;12.316;2024-02-21T18:11:06;99880.24;;;6.60;46.72
82311;BME280;72015;51.330;12.316;2024-02-21T18:15:28;99878.01;;;6.65;45.66
82311;BME280;72015;51.330;12.316;2024-02-21T18:19:49;99875.84;;;6.73;45.82
82311;BME280;72015;51.330;12.316;2024-02-21T18:24:13;99874.42;;;6.72;46.63
82311;BME280;72015;51.330;12.316;2024-02-21T18:28:33;99872.03;;;6.71;46.69
82311;BME280;72015;51.330;12.316;2024-02-21T18:32:55;99867.90;;;6.70;47.03
82311;BME280;72015;51.330;12.316;2024-02-21T18:37:17;99864.56;;;6.67;47.62
82311;BME280;72015;51.330;12.316;2024-02-21T18:41:40;99859.12;;;6.70;47.30
82311;BME280;72015;51.330;12.316;2024-02-21T18:46:01;99855.89;;;6.70;47.50
82311;BME280;72015;51.330;12.316;2024-02-21T18:50:23;99854.55;;;6.66;47.87
82311;BME280;72015;51.330;12.316;2024-02-21T18:54:45;99850.47;;;6.62;47.92
82311;BME280;72015;51.330;12.316;2024-02-21T18:59:07;99849.63;;;6.58;48.28
82311;BME280;72015;51.330;12.316;2024-02-21T19:03:29;99847.41;;;6.57;48.04
82311;BME280;72015;51.330;12.316;2024-02-21T19:07:51;99843.68;;;6.62;47.52
82311;BME280;72015;51.330;12.316;2024-02-21T19:12:13;99839.98;;;6.70;47.21
82311;BME280;72015;51.330;12.316;2024-02-21T19:16:35;99835.32;;;6.81;46.77
82311;BME280;72015;51.330;12.316;2024-02-21T19:20:57;99828.66;;;6.88;47.28
82311;BME280;72015;51.330;12.316;2024-02-21T19:25:20;99820.35;;;6.94;47.29
82311;BME280;72015;51.330;12.316;2024-02-21T19:29:42;99813.67;;;6.96;47.51
82311;BME280;72015;51.330;12.316;2024-02-21T19:34:04;99804.77;;;6.94;47.87
82311;BME280;72015;51.330;12.316;2024-02-21T19:38:26;99795.71;;;6.76;49.29
82311;BME280;72015;51.330;12.316;2024-02-21T19:42:48;99786.35;;;6.58;49.43
82311;BME280;72015;51.330;12.316;2024-02-21T19:47:10;99777.75;;;6.46;48.95
82311;BME280;72015;51.330;12.316;2024-02-21T19:51:32;99766.56;;;6.36;48.79
82311;BME280;72015;51.330;12.316;2024-02-21T19:55:54;99756.73;;;6.25;49.17
82311;BME280;72015;51.330;12.316;2024-02-21T20:00:16;99746.04;;;6.20;49.20
82311;BME280;72015;51.330;12.316;2024-02-21T20:04:38;99737.19;;;6.20;48.35
82311;BME280;72015;51.330;12.316;2024-02-21T20:09:00;99728.29;;;6.16;48.51
82311;BME280;72015;51.330;12.316;2024-02-21T20:13:22;99719.28;;;6.10;48.55
82311;BME280;72015;51.330;12.316;2024-02-21T20:17:44;99711.05;;;6.06;48.54
82311;BME280;72015;51.330;12.316;2024-02-21T20:22:06;99703.39;;;6.10;47.46
82311;BME280;72015;51.330;12.316;2024-02-21T20:26:28;99696.12;;;6.13;47.25
82311;BME280;72015;51.330;12.316;2024-02-21T20:30:50;99689.90;;;6.15;47.51
82311;BME280;72015;51.330;12.316;2024-02-21T20:35:12;99684.25;;;6.23;46.42
82311;BME280;72015;51.330;12.316;2024-02-21T20:39:34;99677.81;;;6.32;46.48
82311;BME280;72015;51.330;12.316;2024-02-21T20:43:56;99673.21;;;6.35;46.46
82311;BME280;72015;51.330;12.316;2024-02-21T20:48:18;99666.50;;;6.30;47.06
82311;BME280;72015;51.330;12.316;2024-02-21T20:52:40;99660.13;;;6.30;46.11
82311;BME280;72015;51.330;12.316;2024-02-21T20:57:02;99653.85;;;6.39;45.41
82311;BME280;72015;51.330;12.316;2024-02-21T21:01:24;99647.72;;;6.58;44.15
82311;BME280;72015;51.330;12.316;2024-02-21T21:05:46;99641.41;;;6.67;44.00
82311;BME280;72015;51.330;12.316;2024-02-21T21:10:08;99635.25;;;6.85;43.14
82311;BME280;72015;51.330;12.316;2024-02-21T21:14:30;99632.48;;;6.95;42.90
82311;BME280;72015;51.330;12.316;2024-02-21T21:18:52;99628.10;;;7.10;42.19
82311;BME280;72015;51.330;12.316;2024-02-21T21:23:14;99624.30;;;7.17;42.83
82311;BME280;72015;51.330;12.316;2024-02-21T21:27:36;99619.73;;;7.22;42.91
82311;BME280;72015;51.330;12.316;2024-02-21T21:31:58;99614.56;;;7.23;42.47
82311;BME280;72015;51.330;12.316;2024-02-21T21:36:20;99609.92;;;7.19;43.09
82311;BME280;72015;51.330;12.316;2024-02-21T21:40:42;99602.88;;;7.15;42.85
82311;BME280;72015;51.330;12.316;2024-02-21T21:45:04;99594.32;;;7.20;42.37
82311;BME280;72015;51.330;12.316;2024-02-21T21:49:26;99587.22;;;7.26;42.02
82311;BME280;72015;51.330;12.316;2024-02-21T21:53:48;99580.94;;;7.41;41.41
82311;BME280;72015;51.330;12.316;2024-02-21T21:58:10;99575.00;;;7.54;41.25
82311;BME280;72015;51.330;12.316;2024-02-21T22:02:32;99568.02;;;7.69;40.79
82311;BME280;72015;51.330;12.316;2024-02-21T22:11:16;99554.11;;;8.09;39.45
82311;BME280;72015;51.330;12.316;2024-02-21T22:15:44;99548.03;;;8.19;40.28
82311;BME280;72015;51.330;12.316;2024-02-21T22:24:24;99533.15;;;8.04;41.83
82311;BME280;72015;51.330;12.316;2024-02-21T22:28:44;99526.47;;;7.89;42.29
82311;BME280;72015;51.330;12.316;2024-02-21T22:33:06;99519.26;;;7.84;41.87
82311;BME280;72015;51.330;12.316;2024-02-21T22:41:50;99503.71;;;7.79;41.46
82311;BME280;72015;51.330;12.316;2024-02-21T22:46:12;99494.45;;;7.71;42.42
82311;BME280;72015;51.330;12.316;2024-02-21T22:50:34;99485.61;;;7.57;42.71
82311;BME280;72015;51.330;12.316;2024-02-21T22:55:05;99475.61;;;7.30;43.64
82311;BME280;72015;51.330;12.316;2024-02-21T22:59:18;99467.33;;;7.13;43.30
82311;BME280;72015;51.330;12.316;2024-02-21T23:03:40;99456.16;;;7.05;42.61
82311;BME280;72015;51.330;12.316;2024-02-21T23:08:02;99446.47;;;7.05;41.64
82311;BME280;72015;51.330;12.316;2024-02-21T23:12:24;99438.65;;;7.09;41.53
82311;BME280;72015;51.330;12.316;2024-02-21T23:16:46;99430.41;;;7.14;41.40
82311;BME280;72015;51.330;12.316;2024-02-21T23:21:11;99425.66;;;7.12;41.95
82311;BME280;72015;51.330;12.316;2024-02-21T23:25:33;99419.87;;;7.01;43.14
82311;BME280;72015;51.330;12.316;2024-02-21T23:29:52;99414.11;;;6.82;43.68
82311;BME280;72015;51.330;12.316;2024-02-21T23:34:14;99406.81;;;6.75;43.08
82311;BME280;72015;51.330;12.316;2024-02-21T23:38:36;99400.34;;;6.74;42.13
82311;BME280;72015;51.330;12.316;2024-02-21T23:42:58;99391.35;;;6.71;42.24
82311;BME280;72015;51.330;12.316;2024-02-21T23:47:20;99381.91;;;6.64;42.67
82311;BME280;72015;51.330;12.316;2024-02-21T23:51:42;99371.51;;;6.59;43.57
